Pagina principale
METAR-TAF:

METAR-TAF

Aeroporti :

Cagliari, Italia

Aeroporto di Cagliari-Elmas

latitudine: 39-15N, longitudine: 009-04E, altezza: 4 m

Osservazione

Il bollettino è stato emesso 36 minuti fa, alle 09:50 UTC
Vento 7 kt da ovest/nord-ovest, variando fra ovest e nord/nord-ovest
Temperature 22°C
Umidità 46%
Pressione 1020 hPa
Visibilità 10 km o più
nessuna nube inferiore a 1500 m e nessun cumulonembo

METAR: LIEE 210950Z 30007KT 270V340 CAVOK 22/10 Q1020

Ora: 12:26 (10:26 UTC)

Previsione

Il bollettino è stato emesso 5 ore e 26 minuti fa, alle 05:00 UTC
Previsione valida dal 21 alle 06 UTC al 22 alle 06 UTC
Vento 13 kt da nord/nord-ovest
Visibilità 10 km o più
Nubi sparse ad un'altezza di 3000 ft
Evoluzione graduale
dal 20 alle 19 UTC al 20 alle 21 UTC
Vento 5 kt da direzioni variabili
Evoluzione graduale
dal 21 alle 09 UTC al 21 alle 11 UTC
Vento 10 kt da sud/sud-est

TAF: LIEE 210500Z 2106/2206 33013KT 9999 SCT030 BECMG 2019/2021 VRB05KT BECMG 2109/2111 15010KT

Osservazioni e previsioni meteorologiche di più di 4000 aeroporti (messaggi METAR e TAF).

Le stazioni disponibili sono rappresentate dai dischi gialli e rossi sulla carta.

Puntare il mouse per vedere il nome della stazione.

Clicca sopra per visualizzare le osservazioni e previsioni meteorologiche.

Per cambiare la mappa : fare clic sui pulsanti verdi con una croce nera per ingrandire, il pulsante verde con un trattino per diminuire, o sulla freccia verde per le mappe adiacenti.


METAR-TAF: